Aegean Tiffany — SVAE9 — position and weather

sailwx.info

Track history (hours):
 
Tides and Currents Weather Stations Pressure Air Temp Water Temp Dewpoint Dewpoint Depression Visibility Wind Speed Wind Dir Waves Ship Positions

Aegean Tiffany

Last reported at 2015-Jan-27 12:10 UTC. Time now 2015-Jan-27 18:53 UTC.
Position N 38°14' E 021°43'.

Length 80 m; draft 5.8 m.

Type: Tanker. MMSI: 240870000.

Date/timePositionNaut miles runAvg speedWind from/ knotsBaromVisibWave heightAir tempDewpointWater temp
2015-Jan-27 12:10N 38°14' E 021°43'2 0.1
2015-Jan-27 00:24N 38°15' E 021°44'0 0.0
2015-Jan-26 18:07N 38°15' E 021°44'77 3.5
2015-Jan-25 20:11N 37°56' E 023°19'5 7.5
2015-Jan-25 19:33N 37°57' E 023°24'7 6.2
2015-Jan-25 18:28N 38°02' E 023°31'1 1.1
2015-Jan-25 17:33N 38°02' E 023°32'0 0.0
2015-Jan-25 16:26N 38°02' E 023°32'0 0.0
2015-Jan-25 14:07N 38°02' E 023°32'0 0.0
2015-Jan-25 13:33N 38°02' E 023°32'1 0.1
2015-Jan-25 02:04N 38°02' E 023°31'0 0.0
2015-Jan-25 01:33N 38°02' E 023°31'0 0.0
2015-Jan-25 00:33N 38°02' E 023°31'0 0.0
2015-Jan-24 23:33N 38°02' E 023°31'0 0.0
2015-Jan-24 22:33N 38°02' E 023°31'0 0.0
2015-Jan-24 21:33N 38°02' E 023°31'0 0.0
2015-Jan-24 20:33N 38°02' E 023°31'1 1.1
2015-Jan-24 19:33N 38°02' E 023°32'0 0.0
2015-Jan-23 10:33N 38°02' E 023°32'0 0.0
2015-Jan-23 09:33N 38°02' E 023°32'0 0.0
2015-Jan-23 08:33N 38°02' E 023°32'0 0.0
2015-Jan-23 07:33N 38°02' E 023°32'0 0.0
2015-Jan-23 06:33N 38°02' E 023°32'1 0.9
2015-Jan-23 05:33N 38°02' E 023°31'1 1.3
2015-Jan-23 04:33N 38°01' E 023°30'6 6.1
2015-Jan-23 03:33N 37°57' E 023°23'7 7.1
2015-Jan-23 02:33N 37°56' E 023°15'74 4.9
2015-Jan-22 11:24N 38°15' E 021°44'0 0.0
2015-Jan-22 02:18N 38°15' E 021°44'0 0.0
2015-Jan-21 18:24N 38°15' E 021°44'0 0.0
2015-Jan-20 04:13N 38°15' E 021°44'0 0.0
2015-Jan-20 00:22N 38°15' E 021°44'1 0.1
2015-Jan-19 09:13N 38°14' E 021°43'  
Track history (hours):
 
Tides and Currents Weather Stations Pressure Air Temp Water Temp Dewpoint Dewpoint Depression Visibility Wind Speed Wind Dir Waves Ship Positions

Aegean Tiffany

Last reported at 2015-Jan-27 12:10 UTC. Time now 2015-Jan-27 18:53 UTC.
Position N 38°14' E 021°43'.

Length 80 m; draft 5.8 m.

Type: Tanker. MMSI: 240870000.

Date/timePositionNaut miles runAvg speedWind from/ knotsBaromVisibWave heightAir tempDewpointWater temp
2015-Jan-27 12:10N 38°14' E 021°43'2 0.1
2015-Jan-27 00:24N 38°15' E 021°44'0 0.0
2015-Jan-26 18:07N 38°15' E 021°44'77 3.5
2015-Jan-25 20:11N 37°56' E 023°19'5 7.5
2015-Jan-25 19:33N 37°57' E 023°24'7 6.2
2015-Jan-25 18:28N 38°02' E 023°31'1 1.1
2015-Jan-25 17:33N 38°02' E 023°32'0 0.0
2015-Jan-25 16:26N 38°02' E 023°32'0 0.0
2015-Jan-25 14:07N 38°02' E 023°32'0 0.0
2015-Jan-25 13:33N 38°02' E 023°32'1 0.1
2015-Jan-25 02:04N 38°02' E 023°31'0 0.0
2015-Jan-25 01:33N 38°02' E 023°31'0 0.0
2015-Jan-25 00:33N 38°02' E 023°31'0 0.0
2015-Jan-24 23:33N 38°02' E 023°31'0 0.0
2015-Jan-24 22:33N 38°02' E 023°31'0 0.0
2015-Jan-24 21:33N 38°02' E 023°31'0 0.0
2015-Jan-24 20:33N 38°02' E 023°31'1 1.1
2015-Jan-24 19:33N 38°02' E 023°32'0 0.0
2015-Jan-23 10:33N 38°02' E 023°32'0 0.0
2015-Jan-23 09:33N 38°02' E 023°32'0 0.0
2015-Jan-23 08:33N 38°02' E 023°32'0 0.0
2015-Jan-23 07:33N 38°02' E 023°32'0 0.0
2015-Jan-23 06:33N 38°02' E 023°32'1 0.9
2015-Jan-23 05:33N 38°02' E 023°31'1 1.3
2015-Jan-23 04:33N 38°01' E 023°30'6 6.1
2015-Jan-23 03:33N 37°57' E 023°23'7 7.1
2015-Jan-23 02:33N 37°56' E 023°15'74 4.9
2015-Jan-22 11:24N 38°15' E 021°44'0 0.0
2015-Jan-22 02:18N 38°15' E 021°44'0 0.0
2015-Jan-21 18:24N 38°15' E 021°44'0 0.0
2015-Jan-20 04:13N 38°15' E 021°44'0 0.0
2015-Jan-20 00:22N 38°15' E 021°44'1 0.1
2015-Jan-19 09:13N 38°14' E 021°43'  

Dump ship's entire track history